PWSweather.com
Personal Weather Stations
Station Observations
KB2SBX
Sugarloaf, Sugarloaf, PA 18249

SugarloafSugarloaf, PA 18249

Lat: 41.0126685, Lon: -76.1082041

Elevation: 1030

Station Type: WS-2080

http://sugarloafpaweather.webng.com/weather.shtml

High Low Average
Temperature 37.2°F2.9°F 27.5°F-2.5°F 32.3°F0.2°F
Dew Point 29.6°F-1.3°F 10.8°F-11.8°F 19.7°F-6.8°F
Winds 6.0 mph W9.7 mph W Calm Calm 1.2 mph 1.9 mph
Wind Gusts 13.6 mph21.9 mph -- 5.1 mph8.2 mph
Humidity 85% 44% 61%
Pressure 30.26 in1024.70 in 29.84 in1010.50 in -
Precipitation 0.00 in0.00 in - -
Hour Temp Dew Point Humidity Winds Wind Gusts Pressure Precip Precip Rate Daily Precip Total
12:00 AM 33.6°F0.9°C 29.6°F-1.3°C 85% Calm Calm 0.7 mph1.1 kmh 30.11 in1019.6 mb 0.00 in0.0 mm 0.00 in0.0 mm 0.00 in0.0 mm
12:10 AM 33.6°F0.9°C 29.6°F-1.3°C 85% Calm Calm 0.7 mph1.1 kmh 30.11 in1019.6 mb 0.00 in0.0 mm 0.00 in0.0 mm 0.00 in0.0 mm
12:20 AM 33.8°F1.0°C 29.2°F-1.6°C 83% 0.7 mph SE1.1 kmh SE 3.1 mph5.0 kmh 30.12 in1020.0 mb 0.00 in0.0 mm 0.00 in0.0 mm 0.00 in0.0 mm
12:30 AM 34.0°F1.1°C 28.8°F-1.8°C 81% 0.7 mph SE1.1 kmh SE 3.8 mph6.1 kmh 30.12 in1020.0 mb 0.00 in0.0 mm 0.00 in0.0 mm 0.00 in0.0 mm
12:40 AM 34.0°F1.1°C 28.2°F-2.1°C 79% Calm Calm 3.8 mph6.1 kmh 30.13 in1020.3 mb 0.00 in0.0 mm 0.00 in0.0 mm 0.00 in0.0 mm
12:50 AM 34.3°F1.3°C 27.9°F-2.3°C 77% Calm Calm 6.0 mph9.7 kmh 30.13 in1020.3 mb 0.00 in0.0 mm 0.00 in0.0 mm 0.00 in0.0 mm
01:00 AM 34.2°F1.2°C 27.4°F-2.6°C 76% Calm Calm 2.2 mph3.5 kmh 30.13 in1020.3 mb 0.00 in0.0 mm 0.00 in0.0 mm 0.00 in0.0 mm
01:10 AM 34.0°F1.1°C 26.9°F-2.8°C 75% Calm Calm 0.7 mph1.1 kmh 30.14 in1020.7 mb 0.00 in0.0 mm 0.00 in0.0 mm 0.00 in0.0 mm
01:20 AM 34.0°F1.1°C 26.9°F-2.8°C 75% Calm Calm 1.6 mph2.6 kmh 30.15 in1021.0 mb 0.00 in0.0 mm 0.00 in0.0 mm 0.00 in0.0 mm
01:30 AM 34.0°F1.1°C 26.9°F-2.8°C 75% Calm Calm 0.7 mph1.1 kmh 30.15 in1021.0 mb 0.00 in0.0 mm 0.00 in0.0 mm 0.00 in0.0 mm
01:40 AM 34.0°F1.1°C 26.6°F-3.0°C 74% Calm Calm 2.2 mph3.5 kmh 30.16 in1021.3 mb 0.00 in0.0 mm 0.00 in0.0 mm 0.00 in0.0 mm
01:50 AM 34.0°F1.1°C 26.6°F-3.0°C 74% Calm Calm 1.6 mph2.6 kmh 30.16 in1021.3 mb 0.00 in0.0 mm 0.00 in0.0 mm 0.00 in0.0 mm
02:00 AM 33.8°F1.0°C 26.4°F-3.1°C 74% Calm Calm 3.1 mph5.0 kmh 30.17 in1021.7 mb 0.00 in0.0 mm 0.00 in0.0 mm 0.00 in0.0 mm
02:10 AM 33.6°F0.9°C 26.2°F-3.2°C 74% Calm Calm 0.7 mph1.1 kmh 30.17 in1021.7 mb 0.00 in0.0 mm 0.00 in0.0 mm 0.00 in0.0 mm
02:20 AM 33.4°F0.8°C 26.1°F-3.3°C 74% Calm Calm 1.6 mph2.6 kmh 30.18 in1022.0 mb 0.00 in0.0 mm 0.00 in0.0 mm 0.00 in0.0 mm
02:30 AM 33.1°F0.6°C 25.7°F-3.5°C 74% Calm Calm -- 30.18 in1022.0 mb 0.00 in0.0 mm 0.00 in0.0 mm 0.00 in0.0 mm
02:40 AM 32.9°F0.5°C 25.5°F-3.6°C 74% Calm Calm 0.7 mph1.1 kmh 30.18 in1022.0 mb 0.00 in0.0 mm 0.00 in0.0 mm 0.00 in0.0 mm
02:50 AM 32.7°F0.4°C 25.4°F-3.7°C 74% Calm Calm 0.7 mph1.1 kmh 30.19 in1022.4 mb 0.00 in0.0 mm 0.00 in0.0 mm 0.00 in0.0 mm
03:00 AM 32.4°F0.2°C 25.0°F-3.9°C 74% Calm Calm 1.6 mph2.6 kmh 30.19 in1022.4 mb 0.00 in0.0 mm 0.00 in0.0 mm 0.00 in0.0 mm
03:10 AM 32.4°F0.2°C 25.3°F-3.7°C 75% Calm Calm -- 30.20 in1022.7 mb 0.00 in0.0 mm 0.00 in0.0 mm 0.00 in0.0 mm
03:20 AM 32.0°F0.0°C 24.7°F-4.1°C 74% Calm Calm 1.6 mph2.6 kmh 30.19 in1022.4 mb 0.00 in0.0 mm 0.00 in0.0 mm 0.00 in0.0 mm
03:30 AM 32.0°F0.0°C 25.0°F-3.9°C 75% Calm Calm 0.7 mph1.1 kmh 30.20 in1022.7 mb 0.00 in0.0 mm 0.00 in0.0 mm 0.00 in0.0 mm
03:40 AM 32.0°F0.0°C 25.0°F-3.9°C 75% Calm Calm 1.6 mph2.6 kmh 30.20 in1022.7 mb 0.00 in0.0 mm 0.00 in0.0 mm 0.00 in0.0 mm
03:50 AM 32.0°F0.0°C 25.0°F-3.9°C 75% Calm Calm 1.6 mph2.6 kmh 30.20 in1022.7 mb 0.00 in0.0 mm 0.00 in0.0 mm 0.00 in0.0 mm
04:00 AM 31.6°F-0.2°C 25.0°F-3.9°C 76% Calm Calm 0.7 mph1.1 kmh 30.21 in1023.0 mb 0.00 in0.0 mm 0.00 in0.0 mm 0.00 in0.0 mm
04:10 AM 31.3°F-0.4°C 24.6°F-4.1°C 76% Calm Calm -- 30.21 in1023.0 mb 0.00 in0.0 mm 0.00 in0.0 mm 0.00 in0.0 mm
04:20 AM 30.9°F-0.6°C 24.6°F-4.1°C 77% Calm Calm 0.7 mph1.1 kmh 30.21 in1023.0 mb 0.00 in0.0 mm 0.00 in0.0 mm 0.00 in0.0 mm
04:30 AM 30.7°F-0.7°C 24.4°F-4.2°C 77% Calm Calm -- 30.22 in1023.4 mb 0.00 in0.0 mm 0.00 in0.0 mm 0.00 in0.0 mm
04:40 AM 30.6°F-0.8°C 24.2°F-4.3°C 77% Calm Calm 0.7 mph1.1 kmh 30.22 in1023.4 mb 0.00 in0.0 mm 0.00 in0.0 mm 0.00 in0.0 mm
04:50 AM 30.4°F-0.9°C 24.1°F-4.4°C 77% Calm Calm -- 30.23 in1023.7 mb 0.00 in0.0 mm 0.00 in0.0 mm 0.00 in0.0 mm
05:00 AM 30.2°F-1.0°C 23.9°F-4.5°C 77% Calm Calm 0.7 mph1.1 kmh 30.23 in1023.7 mb 0.00 in0.0 mm 0.00 in0.0 mm 0.00 in0.0 mm
05:10 AM 30.0°F-1.1°C 24.0°F-4.4°C 78% Calm Calm 0.7 mph1.1 kmh 30.24 in1024.0 mb 0.00 in0.0 mm 0.00 in0.0 mm 0.00 in0.0 mm
05:20 AM 29.8°F-1.2°C 23.5°F-4.7°C 77% Calm Calm 0.7 mph1.1 kmh 30.25 in1024.4 mb 0.00 in0.0 mm 0.00 in0.0 mm 0.00 in0.0 mm
05:30 AM 29.5°F-1.4°C 23.2°F-4.9°C 77% Calm Calm 0.7 mph1.1 kmh 30.25 in1024.4 mb 0.00 in0.0 mm 0.00 in0.0 mm 0.00 in0.0 mm
05:40 AM 29.3°F-1.5°C 22.7°F-5.2°C 76% Calm Calm 0.7 mph1.1 kmh 30.24 in1024.0 mb 0.00 in0.0 mm 0.00 in0.0 mm 0.00 in0.0 mm
05:50 AM 29.3°F-1.5°C 22.7°F-5.2°C 76% Calm Calm 0.7 mph1.1 kmh 30.25 in1024.4 mb 0.00 in0.0 mm 0.00 in0.0 mm 0.00 in0.0 mm
06:00 AM 29.3°F-1.5°C 23.0°F-5.0°C 77% Calm Calm 0.7 mph1.1 kmh 30.26 in1024.7 mb 0.00 in0.0 mm 0.00 in0.0 mm 0.00 in0.0 mm
06:10 AM 29.5°F-1.4°C 23.5°F-4.7°C 78% Calm Calm 0.7 mph1.1 kmh 30.25 in1024.4 mb 0.00 in0.0 mm 0.00 in0.0 mm 0.00 in0.0 mm
06:20 AM 29.7°F-1.3°C 24.0°F-4.4°C 79% Calm Calm 0.7 mph1.1 kmh 30.23 in1023.7 mb 0.00 in0.0 mm 0.00 in0.0 mm 0.00 in0.0 mm
06:30 AM 29.7°F-1.3°C 24.0°F-4.4°C 79% Calm Calm -- 30.19 in1022.4 mb 0.00 in0.0 mm 0.00 in0.0 mm 0.00 in0.0 mm
06:40 AM 29.7°F-1.3°C 24.0°F-4.4°C 79% Calm Calm -- 30.13 in1020.3 mb 0.00 in0.0 mm 0.00 in0.0 mm 0.00 in0.0 mm
06:50 AM 29.8°F-1.2°C 24.1°F-4.4°C 79% Calm Calm 0.7 mph1.1 kmh 30.06 in1017.9 mb 0.00 in0.0 mm 0.00 in0.0 mm 0.00 in0.0 mm
07:00 AM 30.0°F-1.1°C 24.0°F-4.4°C 78% Calm Calm 0.7 mph1.1 kmh 30.01 in1016.3 mb 0.00 in0.0 mm 0.00 in0.0 mm 0.00 in0.0 mm
07:10 AM 30.0°F-1.1°C 24.0°F-4.4°C 78% Calm Calm -- 29.96 in1014.6 mb 0.00 in0.0 mm 0.00 in0.0 mm 0.00 in0.0 mm
07:20 AM 29.8°F-1.2°C 23.5°F-4.7°C 77% Calm Calm -- 29.92 in1013.2 mb 0.00 in0.0 mm 0.00 in0.0 mm 0.00 in0.0 mm
07:30 AM 29.7°F-1.3°C 23.1°F-4.9°C 76% Calm Calm 0.7 mph1.1 kmh 29.91 in1012.9 mb 0.00 in0.0 mm 0.00 in0.0 mm 0.00 in0.0 mm
07:40 AM 29.8°F-1.2°C 23.2°F-4.9°C 76% Calm Calm 0.7 mph1.1 kmh 29.91 in1012.9 mb 0.00 in0.0 mm 0.00 in0.0 mm 0.00 in0.0 mm
07:50 AM 30.2°F-1.0°C 23.6°F-4.7°C 76% Calm Calm 1.6 mph2.6 kmh 29.91 in1012.9 mb 0.00 in0.0 mm 0.00 in0.0 mm 0.00 in0.0 mm
08:00 AM 30.4°F-0.9°C 24.1°F-4.4°C 77% Calm Calm 0.7 mph1.1 kmh 29.92 in1013.2 mb 0.00 in0.0 mm 0.00 in0.0 mm 0.00 in0.0 mm
08:10 AM 30.7°F-0.7°C 24.1°F-4.4°C 76% Calm Calm 0.7 mph1.1 kmh 29.93 in1013.5 mb 0.00 in0.0 mm 0.00 in0.0 mm 0.00 in0.0 mm
08:20 AM 31.1°F-0.5°C 24.4°F-4.2°C 76% Calm Calm 0.7 mph1.1 kmh 29.94 in1013.9 mb 0.00 in0.0 mm 0.00 in0.0 mm 0.00 in0.0 mm
08:30 AM 31.6°F-0.2°C 25.3°F-3.7°C 77% Calm Calm 0.7 mph1.1 kmh 29.95 in1014.2 mb 0.00 in0.0 mm 0.00 in0.0 mm 0.00 in0.0 mm
08:40 AM 31.8°F-0.1°C 25.5°F-3.6°C 77% Calm Calm -- 29.95 in1014.2 mb 0.00 in0.0 mm 0.00 in0.0 mm 0.00 in0.0 mm
08:50 AM 32.2°F0.1°C 25.2°F-3.8°C 75% Calm Calm 0.7 mph1.1 kmh 29.96 in1014.6 mb 0.00 in0.0 mm 0.00 in0.0 mm 0.00 in0.0 mm
09:00 AM 32.5°F0.3°C 25.2°F-3.8°C 74% Calm Calm 1.6 mph2.6 kmh 29.97 in1014.9 mb 0.00 in0.0 mm 0.00 in0.0 mm 0.00 in0.0 mm
09:10 AM 32.9°F0.5°C 25.2°F-3.8°C 73% Calm Calm 0.7 mph1.1 kmh 29.97 in1014.9 mb 0.00 in0.0 mm 0.00 in0.0 mm 0.00 in0.0 mm
09:20 AM 33.3°F0.7°C 25.2°F-3.8°C 72% Calm Calm 0.7 mph1.1 kmh 29.99 in1015.6 mb 0.00 in0.0 mm 0.00 in0.0 mm 0.00 in0.0 mm
09:30 AM 33.6°F0.9°C 25.2°F-3.8°C 71% Calm Calm 3.1 mph5.0 kmh 29.99 in1015.6 mb 0.00 in0.0 mm 0.00 in0.0 mm 0.00 in0.0 mm
09:40 AM 34.0°F1.1°C 24.9°F-3.9°C 69% Calm Calm 2.2 mph3.5 kmh 30.00 in1015.9 mb 0.00 in0.0 mm 0.00 in0.0 mm 0.00 in0.0 mm
09:50 AM 34.3°F1.3°C 24.5°F-4.2°C 67% 0.7 mph NW1.1 kmh NW 3.1 mph5.0 kmh 30.00 in1015.9 mb 0.00 in0.0 mm 0.00 in0.0 mm 0.00 in0.0 mm
10:00 AM 34.9°F1.6°C 23.6°F-4.7°C 63% 1.6 mph S2.6 kmh S 3.8 mph6.1 kmh 30.00 in1015.9 mb 0.00 in0.0 mm 0.00 in0.0 mm 0.00 in0.0 mm
10:10 AM 35.4°F1.9°C 23.3°F-4.8°C 61% 4.5 mph W7.2 kmh W 6.0 mph9.7 kmh 30.00 in1015.9 mb 0.00 in0.0 mm 0.00 in0.0 mm 0.00 in0.0 mm
10:20 AM 35.6°F2.0°C 20.6°F-6.3°C 54% 1.6 mph W2.6 kmh W 9.2 mph14.8 kmh 30.00 in1015.9 mb 0.00 in0.0 mm 0.00 in0.0 mm 0.00 in0.0 mm
10:30 AM 35.8°F2.1°C 20.3°F-6.5°C 53% 3.1 mph SW5.0 kmh SW 6.0 mph9.7 kmh 29.98 in1015.2 mb 0.00 in0.0 mm 0.00 in0.0 mm 0.00 in0.0 mm
10:40 AM 35.8°F2.1°C 19.9°F-6.7°C 52% 1.6 mph WSW2.6 kmh WSW 6.9 mph11.1 kmh 29.94 in1013.9 mb 0.00 in0.0 mm 0.00 in0.0 mm 0.00 in0.0 mm
10:50 AM 35.6°F2.0°C 18.8°F-7.3°C 50% 0.7 mph WSW1.1 kmh WSW 7.6 mph12.2 kmh 29.89 in1012.2 mb 0.00 in0.0 mm 0.00 in0.0 mm 0.00 in0.0 mm
11:00 AM 35.6°F2.0°C 18.4°F-7.6°C 49% 2.2 mph SW3.5 kmh SW 9.2 mph14.8 kmh 29.86 in1011.2 mb 0.00 in0.0 mm 0.00 in0.0 mm 0.00 in0.0 mm
11:10 AM 35.6°F2.0°C 18.4°F-7.6°C 49% 3.1 mph SE5.0 kmh SE 4.5 mph7.2 kmh 29.85 in1010.8 mb 0.00 in0.0 mm 0.00 in0.0 mm 0.00 in0.0 mm
11:20 AM 35.6°F2.0°C 18.8°F-7.3°C 50% Calm Calm 4.5 mph7.2 kmh 29.85 in1010.8 mb 0.00 in0.0 mm 0.00 in0.0 mm 0.00 in0.0 mm
11:30 AM 35.4°F1.9°C 18.7°F-7.4°C 50% 1.6 mph NNW2.6 kmh NNW 10.7 mph17.2 kmh 29.85 in1010.8 mb 0.00 in0.0 mm 0.00 in0.0 mm 0.00 in0.0 mm
11:40 AM 35.2°F1.8°C 18.9°F-7.3°C 51% 0.7 mph W1.1 kmh W 7.6 mph12.2 kmh 29.86 in1011.2 mb 0.00 in0.0 mm 0.00 in0.0 mm 0.00 in0.0 mm
11:50 AM 36.0°F2.2°C 19.2°F-7.1°C 50% 2.2 mph SW3.5 kmh SW 7.6 mph12.2 kmh 29.86 in1011.2 mb 0.00 in0.0 mm 0.00 in0.0 mm 0.00 in0.0 mm
12:00 PM 36.7°F2.6°C 20.3°F-6.5°C 51% 0.7 mph SW1.1 kmh SW 5.4 mph8.7 kmh 29.87 in1011.5 mb 0.00 in0.0 mm 0.00 in0.0 mm 0.00 in0.0 mm
12:10 PM 36.7°F2.6°C 19.3°F-7.1°C 49% 3.8 mph W6.1 kmh W 13.6 mph21.9 kmh 29.87 in1011.5 mb 0.00 in0.0 mm 0.00 in0.0 mm 0.00 in0.0 mm
12:20 PM 37.0°F2.8°C 20.6°F-6.3°C 51% 0.7 mph SW1.1 kmh SW 7.6 mph12.2 kmh 29.88 in1011.9 mb 0.00 in0.0 mm 0.00 in0.0 mm 0.00 in0.0 mm
12:30 PM 36.7°F2.6°C 19.8°F-6.8°C 50% 1.6 mph SW2.6 kmh SW 13.0 mph20.9 kmh 29.88 in1011.9 mb 0.00 in0.0 mm 0.00 in0.0 mm 0.00 in0.0 mm
12:40 PM 36.9°F2.7°C 20.4°F-6.4°C 51% 3.1 mph W5.0 kmh W 7.6 mph12.2 kmh 29.88 in1011.9 mb 0.00 in0.0 mm 0.00 in0.0 mm 0.00 in0.0 mm
12:50 PM 37.0°F2.8°C 21.1°F-6.1°C 52% 1.6 mph SW2.6 kmh SW 7.6 mph12.2 kmh 29.89 in1012.2 mb 0.00 in0.0 mm 0.00 in0.0 mm 0.00 in0.0 mm
01:00 PM 36.7°F2.6°C 19.8°F-6.8°C 50% 0.7 mph SW1.1 kmh SW 8.3 mph13.4 kmh 29.88 in1011.9 mb 0.00 in0.0 mm 0.00 in0.0 mm 0.00 in0.0 mm
01:10 PM 37.0°F2.8°C 20.1°F-6.6°C 50% 2.2 mph SW3.5 kmh SW 6.0 mph9.7 kmh 29.89 in1012.2 mb 0.00 in0.0 mm 0.00 in0.0 mm 0.00 in0.0 mm
01:20 PM 36.9°F2.7°C 20.0°F-6.7°C 50% 3.1 mph W5.0 kmh W 11.4 mph18.3 kmh 29.89 in1012.2 mb 0.00 in0.0 mm 0.00 in0.0 mm 0.00 in0.0 mm
01:30 PM 36.7°F2.6°C 19.8°F-6.8°C 50% 3.8 mph SW6.1 kmh SW 7.6 mph12.2 kmh 29.89 in1012.2 mb 0.00 in0.0 mm 0.00 in0.0 mm 0.00 in0.0 mm
01:40 PM 36.5°F2.5°C 20.1°F-6.6°C 51% 1.6 mph SW2.6 kmh SW 8.3 mph13.4 kmh 29.89 in1012.2 mb 0.00 in0.0 mm 0.00 in0.0 mm 0.00 in0.0 mm
01:50 PM 37.2°F2.9°C 19.8°F-6.8°C 49% 1.6 mph SW2.6 kmh SW 6.0 mph9.7 kmh 29.89 in1012.2 mb 0.00 in0.0 mm 0.00 in0.0 mm 0.00 in0.0 mm
02:00 PM 37.2°F2.9°C 18.9°F-7.3°C 47% 2.2 mph N3.5 kmh N 11.4 mph18.3 kmh 29.89 in1012.2 mb 0.00 in0.0 mm 0.00 in0.0 mm 0.00 in0.0 mm
02:10 PM 37.2°F2.9°C 18.9°F-7.3°C 47% 3.1 mph WSW5.0 kmh WSW 9.8 mph15.8 kmh 29.89 in1012.2 mb 0.00 in0.0 mm 0.00 in0.0 mm 0.00 in0.0 mm
02:20 PM 37.0°F2.8°C 17.7°F-7.9°C 45% 3.8 mph WNW6.1 kmh WNW 9.8 mph15.8 kmh 29.91 in1012.9 mb 0.00 in0.0 mm 0.00 in0.0 mm 0.00 in0.0 mm
02:30 PM 36.5°F2.5°C 17.2°F-8.2°C 45% 1.6 mph W2.6 kmh W 9.8 mph15.8 kmh 29.90 in1012.5 mb 0.00 in0.0 mm 0.00 in0.0 mm 0.00 in0.0 mm
02:40 PM 36.5°F2.5°C 17.7°F-7.9°C 46% 1.6 mph W2.6 kmh W 10.7 mph17.2 kmh 29.91 in1012.9 mb 0.00 in0.0 mm 0.00 in0.0 mm 0.00 in0.0 mm
02:50 PM 35.8°F2.1°C 17.6°F-8.0°C 47% 0.7 mph WSW1.1 kmh WSW 4.5 mph7.2 kmh 29.91 in1012.9 mb 0.00 in0.0 mm 0.00 in0.0 mm 0.00 in0.0 mm
03:00 PM 35.4°F1.9°C 17.2°F-8.2°C 47% 1.6 mph WSW2.6 kmh WSW 9.8 mph15.8 kmh 29.91 in1012.9 mb 0.00 in0.0 mm 0.00 in0.0 mm 0.00 in0.0 mm
03:10 PM 35.4°F1.9°C 17.2°F-8.2°C 47% 3.8 mph WSW6.1 kmh WSW 6.9 mph11.1 kmh 29.89 in1012.2 mb 0.00 in0.0 mm 0.00 in0.0 mm 0.00 in0.0 mm
03:20 PM 35.4°F1.9°C 16.7°F-8.5°C 46% 1.6 mph W2.6 kmh W 7.6 mph12.2 kmh 29.86 in1011.2 mb 0.00 in0.0 mm 0.00 in0.0 mm 0.00 in0.0 mm
03:30 PM 35.1°F1.7°C 15.9°F-8.9°C 45% 4.5 mph W7.2 kmh W 9.2 mph14.8 kmh 29.84 in1010.5 mb 0.00 in0.0 mm 0.00 in0.0 mm 0.00 in0.0 mm
03:40 PM 34.5°F1.4°C 15.4°F-9.2°C 45% 2.2 mph NW3.5 kmh NW 8.3 mph13.4 kmh 29.84 in1010.5 mb 0.00 in0.0 mm 0.00 in0.0 mm 0.00 in0.0 mm
03:50 PM 34.2°F1.2°C 15.6°F-9.1°C 46% 1.6 mph WNW2.6 kmh WNW 7.6 mph12.2 kmh 29.85 in1010.8 mb 0.00 in0.0 mm 0.00 in0.0 mm 0.00 in0.0 mm
04:00 PM 34.0°F1.1°C 15.4°F-9.2°C 46% 1.6 mph WSW2.6 kmh WSW 10.7 mph17.2 kmh 29.86 in1011.2 mb 0.00 in0.0 mm 0.00 in0.0 mm 0.00 in0.0 mm
04:10 PM 33.8°F1.0°C 16.2°F-8.8°C 48% 3.1 mph WNW5.0 kmh WNW 5.4 mph8.7 kmh 29.88 in1011.9 mb 0.00 in0.0 mm 0.00 in0.0 mm 0.00 in0.0 mm
04:20 PM 33.6°F0.9°C 16.5°F-8.6°C 49% 1.6 mph W2.6 kmh W 5.4 mph8.7 kmh 29.89 in1012.2 mb 0.00 in0.0 mm 0.00 in0.0 mm 0.00 in0.0 mm
04:30 PM 33.3°F0.7°C 15.2°F-9.3°C 47% 2.2 mph WSW3.5 kmh WSW 9.2 mph14.8 kmh 29.90 in1012.5 mb 0.00 in0.0 mm 0.00 in0.0 mm 0.00 in0.0 mm
04:40 PM 32.9°F0.5°C 14.4°F-9.8°C 46% 1.6 mph W2.6 kmh W 6.0 mph9.7 kmh 29.92 in1013.2 mb 0.00 in0.0 mm 0.00 in0.0 mm 0.00 in0.0 mm
04:50 PM 32.9°F0.5°C 13.4°F-10.3°C 44% 0.7 mph NW1.1 kmh NW 9.2 mph14.8 kmh 29.93 in1013.5 mb 0.00 in0.0 mm 0.00 in0.0 mm 0.00 in0.0 mm
05:00 PM 32.5°F0.3°C 13.1°F-10.5°C 44% 3.8 mph WSW6.1 kmh WSW 6.9 mph11.1 kmh 29.95 in1014.2 mb 0.00 in0.0 mm 0.00 in0.0 mm 0.00 in0.0 mm
05:10 PM 32.4°F0.2°C 13.4°F-10.3°C 45% 2.2 mph SW3.5 kmh SW 6.0 mph9.7 kmh 29.97 in1014.9 mb 0.00 in0.0 mm 0.00 in0.0 mm 0.00 in0.0 mm
05:20 PM 32.2°F0.1°C 12.8°F-10.7°C 44% 0.7 mph W1.1 kmh W 9.2 mph14.8 kmh 29.97 in1014.9 mb 0.00 in0.0 mm 0.00 in0.0 mm 0.00 in0.0 mm
05:30 PM 32.0°F0.0°C 13.1°F-10.5°C 45% Calm Calm 7.6 mph12.2 kmh 29.96 in1014.6 mb 0.00 in0.0 mm 0.00 in0.0 mm 0.00 in0.0 mm
05:40 PM 32.0°F0.0°C 13.1°F-10.5°C 45% 1.6 mph WSW2.6 kmh WSW 6.9 mph11.1 kmh 29.93 in1013.5 mb 0.00 in0.0 mm 0.00 in0.0 mm 0.00 in0.0 mm
05:50 PM 32.0°F0.0°C 13.1°F-10.5°C 45% 0.7 mph W1.1 kmh W 9.2 mph14.8 kmh 29.92 in1013.2 mb 0.00 in0.0 mm 0.00 in0.0 mm 0.00 in0.0 mm
06:00 PM 31.8°F-0.1°C 13.4°F-10.3°C 46% 3.1 mph WSW5.0 kmh WSW 5.4 mph8.7 kmh 29.92 in1013.2 mb 0.00 in0.0 mm 0.00 in0.0 mm 0.00 in0.0 mm
06:10 PM 31.5°F-0.3°C 14.1°F-9.9°C 48% 1.6 mph W2.6 kmh W 7.6 mph12.2 kmh 29.93 in1013.5 mb 0.00 in0.0 mm 0.00 in0.0 mm 0.00 in0.0 mm
06:20 PM 31.3°F-0.4°C 14.4°F-9.8°C 49% 1.6 mph WSW2.6 kmh WSW 6.0 mph9.7 kmh 29.94 in1013.9 mb 0.00 in0.0 mm 0.00 in0.0 mm 0.00 in0.0 mm
06:30 PM 31.3°F-0.4°C 14.8°F-9.6°C 50% 0.7 mph NW1.1 kmh NW 6.0 mph9.7 kmh 29.95 in1014.2 mb 0.00 in0.0 mm 0.00 in0.0 mm 0.00 in0.0 mm
06:40 PM 31.3°F-0.4°C 15.3°F-9.3°C 51% 2.2 mph NW3.5 kmh NW 6.9 mph11.1 kmh 29.97 in1014.9 mb 0.00 in0.0 mm 0.00 in0.0 mm 0.00 in0.0 mm
06:50 PM 31.3°F-0.4°C 15.3°F-9.3°C 51% Calm Calm 5.4 mph8.7 kmh 29.99 in1015.6 mb 0.00 in0.0 mm 0.00 in0.0 mm 0.00 in0.0 mm
07:00 PM 31.1°F-0.5°C 15.1°F-9.4°C 51% 2.2 mph WSW3.5 kmh WSW 5.4 mph8.7 kmh 30.01 in1016.3 mb 0.00 in0.0 mm 0.00 in0.0 mm 0.00 in0.0 mm
07:10 PM 31.1°F-0.5°C 15.1°F-9.4°C 51% 1.6 mph W2.6 kmh W 6.9 mph11.1 kmh 30.01 in1016.3 mb 0.00 in0.0 mm 0.00 in0.0 mm 0.00 in0.0 mm
07:20 PM 30.7°F-0.7°C 15.2°F-9.3°C 52% 2.2 mph WSW3.5 kmh WSW 6.9 mph11.1 kmh 30.03 in1016.9 mb 0.00 in0.0 mm 0.00 in0.0 mm 0.00 in0.0 mm
07:30 PM 30.6°F-0.8°C 15.1°F-9.4°C 52% 3.8 mph SW6.1 kmh SW 7.6 mph12.2 kmh 30.04 in1017.3 mb 0.00 in0.0 mm 0.00 in0.0 mm 0.00 in0.0 mm
07:40 PM 30.6°F-0.8°C 15.1°F-9.4°C 52% 3.1 mph WNW5.0 kmh WNW 7.6 mph12.2 kmh 30.05 in1017.6 mb 0.00 in0.0 mm 0.00 in0.0 mm 0.00 in0.0 mm
07:50 PM 30.4°F-0.9°C 15.3°F-9.3°C 53% 3.8 mph WNW6.1 kmh WNW 8.3 mph13.4 kmh 30.06 in1017.9 mb 0.00 in0.0 mm 0.00 in0.0 mm 0.00 in0.0 mm
08:00 PM 30.2°F-1.0°C 14.7°F-9.6°C 52% 1.6 mph W2.6 kmh W 9.2 mph14.8 kmh 30.07 in1018.3 mb 0.00 in0.0 mm 0.00 in0.0 mm 0.00 in0.0 mm
08:10 PM 29.8°F-1.2°C 14.8°F-9.6°C 53% 1.6 mph WSW2.6 kmh WSW 7.6 mph12.2 kmh 30.08 in1018.6 mb 0.00 in0.0 mm 0.00 in0.0 mm 0.00 in0.0 mm
08:20 PM 29.7°F-1.3°C 14.7°F-9.6°C 53% 1.6 mph SW2.6 kmh SW 6.9 mph11.1 kmh 30.06 in1017.9 mb 0.00 in0.0 mm 0.00 in0.0 mm 0.00 in0.0 mm
08:30 PM 29.3°F-1.5°C 13.9°F-10.1°C 52% 3.8 mph SW6.1 kmh SW 9.2 mph14.8 kmh 30.02 in1016.6 mb 0.00 in0.0 mm 0.00 in0.0 mm 0.00 in0.0 mm
08:40 PM 29.1°F-1.6°C 13.7°F-10.2°C 52% Calm Calm 11.4 mph18.3 kmh 30.00 in1015.9 mb 0.00 in0.0 mm 0.00 in0.0 mm 0.00 in0.0 mm
08:50 PM 28.9°F-1.7°C 13.6°F-10.2°C 52% 1.6 mph SSW2.6 kmh SSW 6.9 mph11.1 kmh 29.99 in1015.6 mb 0.00 in0.0 mm 0.00 in0.0 mm 0.00 in0.0 mm
09:00 PM 28.8°F-1.8°C 13.4°F-10.3°C 52% 3.8 mph W6.1 kmh W 9.8 mph15.8 kmh 29.99 in1015.6 mb 0.00 in0.0 mm 0.00 in0.0 mm 0.00 in0.0 mm
09:10 PM 28.6°F-1.9°C 13.2°F-10.4°C 52% 3.1 mph N5.0 kmh N 6.9 mph11.1 kmh 30.01 in1016.3 mb 0.00 in0.0 mm 0.00 in0.0 mm 0.00 in0.0 mm
09:20 PM 28.4°F-2.0°C 13.1°F-10.5°C 52% 1.6 mph WNW2.6 kmh WNW 9.2 mph14.8 kmh 30.03 in1016.9 mb 0.00 in0.0 mm 0.00 in0.0 mm 0.00 in0.0 mm
09:30 PM 28.2°F-2.1°C 11.1°F-11.6°C 48% 2.2 mph WSW3.5 kmh WSW 6.0 mph9.7 kmh 30.05 in1017.6 mb 0.00 in0.0 mm 0.00 in0.0 mm 0.00 in0.0 mm
09:40 PM 28.0°F-2.2°C 10.9°F-11.7°C 48% 1.6 mph SW2.6 kmh SW 6.9 mph11.1 kmh 30.06 in1017.9 mb 0.00 in0.0 mm 0.00 in0.0 mm 0.00 in0.0 mm
09:50 PM 27.9°F-2.3°C 10.8°F-11.8°C 48% 3.8 mph WSW6.1 kmh WSW 9.2 mph14.8 kmh 30.08 in1018.6 mb 0.00 in0.0 mm 0.00 in0.0 mm 0.00 in0.0 mm
10:00 PM 27.9°F-2.3°C 11.2°F-11.6°C 49% 1.6 mph WSW2.6 kmh WSW 9.2 mph14.8 kmh 30.09 in1019.0 mb 0.00 in0.0 mm 0.00 in0.0 mm 0.00 in0.0 mm
10:10 PM 27.9°F-2.3°C 11.2°F-11.6°C 49% 3.1 mph W5.0 kmh W 6.9 mph11.1 kmh 30.10 in1019.3 mb 0.00 in0.0 mm 0.00 in0.0 mm 0.00 in0.0 mm
10:20 PM 27.7°F-2.4°C 11.1°F-11.6°C 49% 1.6 mph WSW2.6 kmh WSW 11.4 mph18.3 kmh 30.11 in1019.6 mb 0.00 in0.0 mm 0.00 in0.0 mm 0.00 in0.0 mm
10:30 PM 27.7°F-2.4°C 11.5°F-11.4°C 50% 1.6 mph WSW2.6 kmh WSW 7.6 mph12.2 kmh 30.12 in1020.0 mb 0.00 in0.0 mm 0.00 in0.0 mm 0.00 in0.0 mm
10:40 PM 27.7°F-2.4°C 11.5°F-11.4°C 50% 2.2 mph SW3.5 kmh SW 5.4 mph8.7 kmh 30.12 in1020.0 mb 0.00 in0.0 mm 0.00 in0.0 mm 0.00 in0.0 mm
10:50 PM 27.7°F-2.4°C 12.0°F-11.1°C 51% 3.8 mph W6.1 kmh W 6.9 mph11.1 kmh 30.13 in1020.3 mb 0.00 in0.0 mm 0.00 in0.0 mm 0.00 in0.0 mm
11:00 PM 27.7°F-2.4°C 12.0°F-11.1°C 51% 1.6 mph WSW2.6 kmh WSW 9.8 mph15.8 kmh 30.14 in1020.7 mb 0.00 in0.0 mm 0.00 in0.0 mm 0.00 in0.0 mm
11:10 PM 27.7°F-2.4°C 12.0°F-11.1°C 51% 6.0 mph W9.7 kmh W 9.2 mph14.8 kmh 30.15 in1021.0 mb 0.00 in0.0 mm 0.00 in0.0 mm 0.00 in0.0 mm
11:20 PM 27.5°F-2.5°C 11.8°F-11.2°C 51% 2.2 mph W3.5 kmh W 9.2 mph14.8 kmh 30.16 in1021.3 mb 0.00 in0.0 mm 0.00 in0.0 mm 0.00 in0.0 mm
11:30 PM 27.5°F-2.5°C 12.2°F-11.0°C 52% 0.7 mph W1.1 kmh W 6.9 mph11.1 kmh 30.16 in1021.3 mb 0.00 in0.0 mm 0.00 in0.0 mm 0.00 in0.0 mm
11:40 PM 27.5°F-2.5°C 12.7°F-10.7°C 53% 0.7 mph W1.1 kmh W 5.4 mph8.7 kmh 30.17 in1021.7 mb 0.00 in0.0 mm 0.00 in0.0 mm 0.00 in0.0 mm
11:50 PM 27.5°F-2.5°C 12.2°F-11.0°C 52% 0.7 mph W1.1 kmh W 13.0 mph20.9 kmh 30.18 in1022.0 mb 0.00 in0.0 mm 0.00 in0.0 mm 0.00 in0.0 mm